Time;durP1;ratioP1;P1;durP2;ratioP2;P2;SDS_P1;SDS_P2;PMS_P1;PMS_P2;Temp;Humidity;BMP_temperature;BMP_pressure;BME280_temperature;BME280_humidity;BME280_pressure;Samples;Min_cycle;Max_cycle;Signal;HPM_P1;HPM_P2
2023/07/08 00:03:33;;;;;;;6.43;1.98;;;;;;;20.62;33.90;98242.09;10515574;28;20092;-74
2023/07/08 00:08:54;;;;;;;3.20;1.90;;;;;;;20.51;34.04;98255.91;10530157;28;20082;-73
2023/07/08 00:14:15;;;;;;;3.10;1.60;;;;;;;20.37;34.50;98246.88;10529658;28;20067;-74
2023/07/08 00:19:35;;;;;;;2.33;1.60;;;;;;;20.30;34.52;98254.41;10529029;28;20048;-74
2023/07/08 00:24:56;;;;;;;3.90;1.83;;;;;;;20.20;34.91;98259.69;10543948;28;20067;-73
2023/07/08 00:30:22;;;;;;;5.63;2.30;;;;;;;20.08;35.13;98258.53;10489719;28;20122;-73
2023/07/08 00:35:43;;;;;;;4.00;2.17;;;;;;;19.94;36.30;98256.56;10501221;28;20498;-73
2023/07/08 00:41:10;;;;;;;6.32;2.50;;;;;;;19.81;36.60;98256.75;10500762;28;20500;-73
2023/07/08 00:46:30;;;;;;;5.40;2.40;;;;;;;19.66;37.06;98255.47;10499745;28;20451;-73
2023/07/08 00:51:51;;;;;;;4.30;2.58;;;;;;;19.50;37.50;98266.13;10526854;28;20140;-72
2023/07/08 00:57:12;;;;;;;4.13;2.20;;;;;;;19.31;37.64;98259.72;10513934;28;20047;-73
2023/07/08 01:02:36;;;;;;;4.15;2.38;;;;;;;19.19;38.24;98253.53;10513820;28;20087;-75
2023/07/08 01:07:59;;;;;;;3.65;2.20;;;;;;;19.07;38.52;98248.09;10491011;28;20044;-73
2023/07/08 01:13:19;;;;;;;3.67;2.20;;;;;;;18.94;39.10;98248.94;10526945;28;20064;-73
2023/07/08 01:18:41;;;;;;;3.38;2.15;;;;;;;18.81;39.51;98244.13;10527106;28;20044;-73
2023/07/08 01:24:04;;;;;;;4.93;2.58;;;;;;;18.68;39.80;98247.81;10512623;28;20142;-74
2023/07/08 01:29:25;;;;;;;5.35;2.28;;;;;;;18.59;40.52;98241.75;10497957;28;20085;-72
2023/07/08 01:34:59;;;;;;;4.22;2.30;;;;;;;18.46;40.57;98234.13;10512337;28;20119;-72
2023/07/08 01:40:29;;;;;;;6.72;2.60;;;;;;;18.44;40.59;98225.56;10527657;28;20193;-74
2023/07/08 01:45:50;;;;;;;3.55;2.00;;;;;;;18.35;40.66;98226.56;10497699;28;20443;-73
2023/07/08 01:51:11;;;;;;;4.18;2.10;;;;;;;18.30;40.93;98222.81;10470297;28;20079;-74
2023/07/08 01:56:32;;;;;;;4.32;2.50;;;;;;;18.25;41.21;98221.19;10469973;28;20525;-75
2023/07/08 02:01:55;;;;;;;7.30;2.33;;;;;;;18.29;41.39;98224.19;10480682;28;20161;-75
2023/07/08 02:07:16;;;;;;;5.60;2.42;;;;;;;18.35;41.33;98217.38;10496485;28;20117;-75
2023/07/08 02:12:37;;;;;;;4.88;2.42;;;;;;;18.34;41.66;98216.63;10525131;28;20121;-75
2023/07/08 02:17:58;;;;;;;4.10;2.42;;;;;;;18.36;42.04;98210.34;10510977;28;20124;-75
2023/07/08 02:23:18;;;;;;;5.57;2.53;;;;;;;18.34;41.77;98211.00;10496200;28;20078;-75
2023/07/08 02:28:39;;;;;;;4.97;2.20;;;;;;;18.35;41.99;98214.53;10510872;28;20132;-74
2023/07/08 02:34:02;;;;;;;12.02;3.03;;;;;;;18.30;42.09;98219.28;10523857;28;20083;-74
2023/07/08 02:39:23;;;;;;;4.97;3.00;;;;;;;18.19;42.53;98203.97;10524067;28;20128;-73
2023/07/08 02:44:44;;;;;;;5.25;2.42;;;;;;;18.07;42.94;98214.00;10497033;28;20119;-73
2023/07/08 02:50:05;;;;;;;5.65;2.38;;;;;;;17.89;43.37;98211.06;10509791;28;20068;-74
2023/07/08 02:55:26;;;;;;;4.72;2.38;;;;;;;17.79;43.90;98208.50;10522948;28;20459;-73
2023/07/08 03:00:59;;;;;;;3.72;2.08;;;;;;;17.74;44.49;98206.81;10523958;28;20120;-74
2023/07/08 03:06:21;;;;;;;5.45;2.70;;;;;;;17.68;44.54;98209.34;10440388;28;20120;-74
2023/07/08 03:11:42;;;;;;;4.90;2.53;;;;;;;17.64;44.51;98211.97;10468469;28;20113;-73
2023/07/08 03:17:03;;;;;;;5.30;2.30;;;;;;;17.66;44.90;98212.06;10481415;28;20068;-73
2023/07/08 03:22:24;;;;;;;4.35;2.25;;;;;;;17.68;45.11;98215.00;10481572;28;20466;-73
2023/07/08 03:27:45;;;;;;;5.00;2.30;;;;;;;17.71;45.23;98220.13;10500429;28;20489;-74
2023/07/08 03:33:06;;;;;;;4.57;2.15;;;;;;;17.75;45.32;98225.22;10538582;28;20040;-74
2023/07/08 03:38:27;;;;;;;4.50;2.40;;;;;;;17.84;45.30;98232.72;10523151;28;20592;-74
2023/07/08 03:43:47;;;;;;;4.20;2.10;;;;;;;17.95;45.33;98240.31;10482963;28;20148;-73
2023/07/08 03:49:09;;;;;;;4.25;2.38;;;;;;;18.01;45.34;98237.03;10474416;28;20087;-75
2023/07/08 03:54:30;;;;;;;4.40;2.45;;;;;;;18.14;45.46;98243.97;10460809;28;20036;-74
2023/07/08 03:59:52;;;;;;;6.93;2.60;;;;;;;18.25;45.41;98257.94;10488083;28;20129;-74
2023/07/08 04:05:20;;;;;;;3.08;1.80;;;;;;;18.38;45.42;98259.19;10491929;28;20076;-74
2023/07/08 04:10:41;;;;;;;4.85;2.20;;;;;;;18.50;45.12;98265.38;10515881;28;20198;-74
2023/07/08 04:16:02;;;;;;;4.78;2.30;;;;;;;18.62;45.20;98261.63;10528053;28;20043;-74
2023/07/08 04:21:24;;;;;;;5.40;2.60;;;;;;;18.75;45.21;98260.84;10513595;28;20052;-73
2023/07/08 04:26:46;;;;;;;3.97;2.08;;;;;;;18.82;45.06;98265.41;10515149;28;20099;-74
2023/07/08 04:32:07;;;;;;;5.35;3.17;;;;;;;18.94;45.17;98270.84;10513627;28;20070;-75
2023/07/08 04:37:28;;;;;;;6.60;2.88;;;;;;;19.05;45.06;98273.47;10528690;28;20183;-75
2023/07/08 04:42:49;;;;;;;5.28;2.90;;;;;;;19.11;44.95;98275.84;10514506;28;20068;-74
2023/07/08 04:48:13;;;;;;;9.52;3.13;;;;;;;19.27;45.05;98275.78;10499978;28;20064;-74
2023/07/08 04:53:34;;;;;;;5.15;2.88;;;;;;;19.43;45.42;98285.69;10500034;28;20520;-74
2023/07/08 04:58:56;;;;;;;4.95;2.85;;;;;;;19.64;45.22;98295.03;10513004;28;20048;-74
2023/07/08 05:04:18;;;;;;;6.55;2.72;;;;;;;19.90;44.93;98292.53;10527261;28;20059;-74
2023/07/08 05:09:39;;;;;;;5.97;2.70;;;;;;;20.15;45.07;98286.41;10526238;28;20036;-74
2023/07/08 05:14:59;;;;;;;6.47;3.25;;;;;;;20.37;44.29;98297.91;10541138;28;20500;-74
2023/07/08 05:20:20;;;;;;;6.20;3.15;;;;;;;20.68;44.03;98296.94;10511557;28;20073;-74
2023/07/08 05:25:40;;;;;;;6.03;2.75;;;;;;;21.20;43.74;98300.19;10499227;28;20466;-74
2023/07/08 05:31:01;;;;;;;5.43;2.80;;;;;;;21.69;42.44;98313.19;10511941;28;20520;-74
2023/07/08 05:36:22;;;;;;;5.85;2.80;;;;;;;22.24;42.12;98317.81;10526002;28;20683;-75
2023/07/08 05:41:43;;;;;;;7.20;3.47;;;;;;;22.69;40.85;98322.00;10525409;28;20071;-74
2023/07/08 05:47:04;;;;;;;6.25;2.80;;;;;;;23.26;40.09;98327.19;10525899;28;20040;-75
2023/07/08 05:52:25;;;;;;;4.55;2.78;;;;;;;23.72;39.38;98323.34;10522491;28;20095;-73
2023/07/08 05:57:46;;;;;;;6.63;2.95;;;;;;;24.23;37.84;98319.59;10525592;28;20047;-74
2023/07/08 06:03:06;;;;;;;5.88;2.83;;;;;;;24.70;37.55;98320.63;10497591;28;20063;-75
2023/07/08 06:08:27;;;;;;;7.90;2.97;;;;;;;25.24;36.01;98317.44;10512030;28;20044;-74
2023/07/08 06:13:48;;;;;;;3.55;2.60;;;;;;;25.87;35.29;98319.28;10495840;28;20051;-74
2023/07/08 06:19:09;;;;;;;7.85;3.30;;;;;;;26.50;33.80;98328.09;10506775;28;20051;-74
2023/07/08 06:24:30;;;;;;;7.45;2.50;;;;;;;26.84;32.42;98316.38;10521000;28;20043;-74
2023/07/08 06:29:51;;;;;;;5.03;2.35;;;;;;;27.15;30.56;98316.75;10465030;28;20097;-75
2023/07/08 06:35:12;;;;;;;5.38;2.70;;;;;;;27.11;30.69;98320.25;10539558;28;20397;-73
2023/07/08 06:40:34;;;;;;;6.63;2.50;;;;;;;27.91;29.95;98307.44;10523050;28;20042;-73
2023/07/08 06:45:55;;;;;;;3.57;2.50;;;;;;;27.92;28.80;98311.75;10482062;28;20386;-73
2023/07/08 06:51:20;;;;;;;4.70;2.60;;;;;;;28.43;28.86;98306.34;10502737;28;20051;-74
2023/07/08 06:56:41;;;;;;;4.30;2.40;;;;;;;28.97;28.57;98296.56;10495776;28;20110;-75
2023/07/08 07:02:02;;;;;;;6.67;2.43;;;;;;;29.33;27.67;98293.03;10539491;28;20056;-76
2023/07/08 07:07:24;;;;;;;5.27;2.47;;;;;;;29.18;27.11;98306.69;10504670;28;20353;-73
2023/07/08 07:12:45;;;;;;;5.25;2.25;;;;;;;29.57;26.90;98298.16;10523246;28;20072;-73
2023/07/08 07:18:05;;;;;;;3.78;2.10;;;;;;;29.87;26.42;98294.53;10509236;28;20036;-72
2023/07/08 07:23:27;;;;;;;5.00;2.28;;;;;;;29.74;25.69;98293.84;10530741;28;20143;-70
2023/07/08 07:28:49;;;;;;;4.30;1.92;;;;;;;29.73;26.01;98301.03;10527855;28;20036;-72
2023/07/08 07:34:11;;;;;;;3.97;2.13;;;;;;;30.51;25.06;98313.19;10529702;28;20060;-70
2023/07/08 07:39:32;;;;;;;4.68;1.85;;;;;;;30.85;24.84;98306.59;10502017;28;20036;-72
2023/07/08 07:44:54;;;;;;;2.97;1.67;;;;;;;30.94;24.25;98310.88;10487662;28;20117;-73
2023/07/08 07:50:15;;;;;;;4.45;1.92;;;;;;;31.25;23.77;98311.44;10530371;28;20125;-73
2023/07/08 07:55:36;;;;;;;2.88;1.98;;;;;;;30.87;23.34;98305.84;10503079;28;20544;-72
2023/07/08 08:00:57;;;;;;;9.65;1.67;;;;;;;30.65;23.17;98298.75;10480177;28;20431;-73
2023/07/08 08:06:19;;;;;;;4.05;1.50;;;;;;;30.71;23.90;98300.91;10476177;28;20052;-69
2023/07/08 08:11:40;;;;;;;6.00;1.63;;;;;;;31.40;22.44;98297.66;10479373;28;20549;-71
2023/07/08 08:17:02;;;;;;;2.70;1.58;;;;;;;31.99;22.42;98297.22;10499150;28;20040;-71
2023/07/08 08:22:23;;;;;;;4.97;1.80;;;;;;;31.74;21.78;98302.44;10516624;28;20391;-72
2023/07/08 08:27:45;;;;;;;5.37;1.90;;;;;;;32.43;22.13;98292.47;10485954;28;20053;-72
2023/07/08 08:33:06;;;;;;;2.53;1.65;;;;;;;31.68;21.17;98301.78;10468503;28;20329;-74
2023/07/08 08:38:27;;;;;;;;;;;;;;;30.99;22.02;98295.00;10472802;28;20067;-73
2023/07/08 08:43:48;;;;;;;2.07;1.60;;;;;;;31.18;21.85;98289.13;10500487;28;19952;-71
2023/07/08 08:49:22;;;;;;;3.72;1.63;;;;;;;31.19;21.86;98296.34;10505781;28;20048;-72
2023/07/08 08:54:43;;;;;;;2.63;1.50;;;;;;;32.23;21.22;98283.97;10444277;28;20041;-73
2023/07/08 09:00:07;;;;;;;5.15;2.00;;;;;;;32.86;20.12;98289.81;10463244;28;20037;-72
2023/07/08 09:05:28;;;;;;;3.50;1.90;;;;;;;32.22;20.60;98289.03;10477165;28;20048;-72
2023/07/08 09:11:07;;;;;;;5.20;2.75;;;;;;;33.08;20.46;98288.78;10512880;28;20048;-72
2023/07/08 09:16:55;;;;;;;3.47;1.90;;;;;;;33.44;19.37;98275.28;10526297;28;20127;-72
2023/07/08 09:22:49;;;;;;;3.40;1.70;;;;;;;33.33;19.06;98282.66;10540987;28;20109;-74
2023/07/08 09:28:13;;;;;;;6.05;2.05;;;;;;;33.28;19.52;98282.69;10507364;28;20418;-75
2023/07/08 09:33:39;;;;;;;2.92;1.70;;;;;;;33.87;18.85;98266.59;10496133;28;20055;-73
2023/07/08 09:39:01;;;;;;;6.00;1.90;;;;;;;34.32;18.60;98271.59;10526896;28;20048;-73
2023/07/08 09:44:28;;;;;;;4.03;1.90;;;;;;;34.83;17.98;98262.59;10518749;28;20036;-74
2023/07/08 09:49:51;;;;;;;3.45;1.77;;;;;;;34.05;18.27;98274.25;10515006;28;20060;-74
2023/07/08 09:55:13;;;;;;;4.68;1.90;;;;;;;33.72;18.74;98274.09;10491260;28;20039;-74
2023/07/08 10:00:39;;;;;;;2.67;1.77;;;;;;;34.11;18.78;98268.38;10540033;28;20074;-72
2023/07/08 10:06:03;;;;;;;5.43;1.83;;;;;;;34.20;17.97;98263.84;10522610;28;20048;-75
2023/07/08 10:11:39;;;;;;;2.95;1.63;;;;;;;33.98;17.84;98265.00;10512483;28;20048;-72
2023/07/08 10:17:00;;;;;;;3.63;1.70;;;;;;;32.79;18.27;98270.34;10524910;28;20538;-75
2023/07/08 10:22:44;;;;;;;3.60;1.77;;;;;;;32.38;18.76;98256.41;10538201;28;20048;-75
2023/07/08 10:28:29;;;;;;;4.00;1.48;;;;;;;32.37;18.78;98240.53;10549710;28;20040;-75
2023/07/08 10:34:09;;;;;;;4.95;1.92;;;;;;;32.86;18.25;98234.88;10505745;28;20124;-73
2023/07/08 10:39:49;;;;;;;2.50;1.30;;;;;;;32.89;18.44;98242.06;10535232;28;20039;-76
2023/07/08 10:45:17;;;;;;;4.20;1.60;;;;;;;33.56;17.71;98240.34;10534607;28;20442;-72
2023/07/08 10:51:20;;;;;;;3.70;1.65;;;;;;;33.80;17.31;98225.47;10509462;28;20044;-74
2023/07/08 10:56:51;;;;;;;4.75;1.75;;;;;;;33.82;17.14;98231.22;10545045;28;20036;-73
2023/07/08 11:02:15;;;;;;;2.97;1.70;;;;;;;33.33;17.41;98230.59;10536006;28;20127;-76
2023/07/08 11:07:40;;;;;;;1.88;1.45;;;;;;;32.96;18.17;98220.28;10519471;28;20449;-75
2023/07/08 11:13:06;;;;;;;2.78;1.40;;;;;;;33.01;18.04;98215.88;10499713;28;20075;-77
2023/07/08 11:18:40;;;;;;;3.42;1.88;;;;;;;32.80;18.14;98225.53;10523689;28;20060;-76
2023/07/08 11:24:18;;;;;;;3.03;1.77;;;;;;;32.22;18.17;98222.63;10533471;28;20040;-73
2023/07/08 11:29:45;;;;;;;5.20;1.40;;;;;;;32.17;18.43;98232.78;10541492;28;20535;-75
2023/07/08 11:35:12;;;;;;;3.00;1.48;;;;;;;32.28;18.61;98204.53;10493931;28;20040;-76
2023/07/08 11:40:48;;;;;;;5.55;1.75;;;;;;;32.82;17.75;98205.31;10503162;28;20047;-76
2023/07/08 11:46:17;;;;;;;2.60;1.50;;;;;;;33.56;17.31;98194.03;10532465;28;20044;-76
2023/07/08 11:51:43;;;;;;;3.88;1.27;;;;;;;33.08;16.62;98199.13;10516922;28;20048;-76
2023/07/08 11:57:05;;;;;;;4.88;1.30;;;;;;;33.28;16.92;98190.13;10489018;28;20044;-76
2023/07/08 12:02:31;;;;;;;3.63;1.30;;;;;;;32.97;16.95;98192.09;10530265;28;20060;-77
2023/07/08 12:07:57;;;;;;;3.33;1.30;;;;;;;32.94;16.62;98182.03;10516593;28;20123;-76
2023/07/08 12:13:21;;;;;;;2.38;1.52;;;;;;;33.37;16.44;98172.69;10516417;28;20067;-77
2023/07/08 12:18:45;;;;;;;2.88;1.58;;;;;;;33.60;16.27;98159.28;10516011;28;20048;-76
2023/07/08 12:24:09;;;;;;;2.30;1.52;;;;;;;33.85;16.32;98160.22;10515484;28;20036;-76
2023/07/08 12:29:32;;;;;;;2.80;1.63;;;;;;;33.16;16.26;98167.22;10515744;28;20047;-76
2023/07/08 12:34:53;;;;;;;2.70;1.58;;;;;;;32.95;16.83;98160.31;10529324;28;20497;-76
2023/07/08 12:40:14;;;;;;;3.75;1.70;;;;;;;32.98;16.77;98162.44;10514658;28;20044;-76
2023/07/08 12:45:36;;;;;;;1.95;1.20;;;;;;;33.31;16.63;98161.91;10514712;28;20074;-75
2023/07/08 12:50:57;;;;;;;1.63;1.13;;;;;;;33.92;16.47;98160.16;10514476;28;20070;-76
2023/07/08 12:56:20;;;;;;;2.80;1.15;;;;;;;33.85;15.62;98154.44;10528341;28;20463;-76
2023/07/08 13:01:41;;;;;;;3.20;1.33;;;;;;;32.93;15.69;98166.84;10513793;28;20055;-76
2023/07/08 13:07:03;;;;;;;3.08;1.48;;;;;;;32.40;16.49;98152.41;10499516;28;20464;-76
2023/07/08 13:12:25;;;;;;;3.35;1.20;;;;;;;33.04;16.26;98144.28;10542499;28;20044;-75
2023/07/08 13:17:46;;;;;;;3.92;1.20;;;;;;;33.47;15.91;98143.56;10498408;28;20420;-76
2023/07/08 13:23:07;;;;;;;3.73;1.40;;;;;;;33.97;15.58;98133.28;10513265;28;20067;-76
2023/07/08 13:28:30;;;;;;;4.25;1.80;;;;;;;33.38;16.66;98139.38;10512909;28;20263;-76
2023/07/08 13:33:54;;;;;;;5.07;1.50;;;;;;;31.92;17.79;98128.41;10512676;28;20048;-76
2023/07/08 13:39:34;;;;;;;5.32;1.50;;;;;;;31.72;18.46;98131.50;10512396;28;20366;-76
2023/07/08 13:44:55;;;;;;;2.58;1.65;;;;;;;31.61;18.14;98137.38;10512407;28;20527;-76
2023/07/08 13:50:23;;;;;;;3.22;1.63;;;;;;;31.53;18.40;98137.47;10512062;28;20043;-75
2023/07/08 13:55:45;;;;;;;3.42;1.55;;;;;;;31.90;18.12;98119.78;10525833;28;20040;-76
2023/07/08 14:01:09;;;;;;;2.85;1.42;;;;;;;32.08;17.85;98115.97;10511589;28;20044;-76
2023/07/08 14:06:32;;;;;;;3.33;1.50;;;;;;;32.15;17.51;98126.72;10525741;28;20115;-76
2023/07/08 14:11:55;;;;;;;3.72;1.70;;;;;;;32.09;17.90;98126.78;10540392;28;20471;-76
2023/07/08 14:17:20;;;;;;;2.47;1.50;;;;;;;32.06;18.04;98116.00;10525288;28;20387;-76
2023/07/08 14:22:41;;;;;;;2.92;1.50;;;;;;;32.04;18.07;98116.75;10510935;28;20040;-76
2023/07/08 14:28:02;;;;;;;3.13;1.40;;;;;;;31.46;18.66;98120.94;10510979;28;20040;-76
2023/07/08 14:33:23;;;;;;;;;;;;;;;31.26;18.73;98113.19;10511314;28;20071;-75
2023/07/08 14:38:44;;;;;;;2.87;1.23;;;;;;;31.41;18.67;98119.56;10524496;28;20000;-77
2023/07/08 14:44:26;;;;;;;1.60;1.20;;;;;;;31.40;18.97;98115.97;10510527;28;20048;-76
2023/07/08 14:49:48;;;;;;;3.53;1.50;;;;;;;31.09;18.72;98109.03;10511356;28;20390;-76
2023/07/08 14:55:09;;;;;;;2.42;1.70;;;;;;;30.97;18.80;98092.53;10496313;28;20044;-76
2023/07/08 15:00:30;;;;;;;2.97;1.53;;;;;;;31.03;18.68;98096.09;10509929;28;20417;-76
2023/07/08 15:05:51;;;;;;;2.90;1.35;;;;;;;31.03;18.86;98095.38;10523533;28;20130;-76
2023/07/08 15:11:13;;;;;;;3.17;1.50;;;;;;;31.06;19.19;98083.06;10510120;28;20044;-76
2023/07/08 15:16:36;;;;;;;4.88;1.80;;;;;;;30.73;18.87;98084.81;10510086;28;20402;-76
2023/07/08 15:22:00;;;;;;;3.17;1.60;;;;;;;30.80;19.03;98083.31;10538785;28;20389;-76
2023/07/08 15:27:24;;;;;;;3.80;1.70;;;;;;;30.67;19.13;98076.19;10510819;28;20036;-75
2023/07/08 15:32:46;;;;;;;4.07;1.55;;;;;;;30.71;19.47;98085.53;10523559;28;20055;-76
2023/07/08 15:38:06;;;;;;;2.35;1.60;;;;;;;30.71;19.27;98071.13;10509348;28;20040;-75
2023/07/08 15:43:27;;;;;;;3.58;1.77;;;;;;;30.70;19.21;98074.75;10530072;28;20446;-76
2023/07/08 15:48:49;;;;;;;2.80;1.58;;;;;;;30.68;19.22;98077.63;10516919;28;20401;-76
2023/07/08 15:54:10;;;;;;;4.00;1.40;;;;;;;30.56;19.60;98066.16;10546105;28;20051;-75
2023/07/08 15:59:31;;;;;;;2.05;1.48;;;;;;;30.63;19.06;98064.69;10516700;28;20397;-76
2023/07/08 16:04:53;;;;;;;4.50;1.70;;;;;;;30.59;19.38;98071.19;10516280;28;20056;-76
2023/07/08 16:10:14;;;;;;;3.80;1.50;;;;;;;30.54;19.45;98063.31;10502240;28;20090;-76
2023/07/08 16:15:36;;;;;;;3.53;1.50;;;;;;;30.54;19.61;98075.53;10529769;28;20040;-76
2023/07/08 16:20:57;;;;;;;2.95;1.70;;;;;;;30.44;20.03;98064.81;10515764;28;20090;-76
2023/07/08 16:26:18;;;;;;;3.55;1.67;;;;;;;30.25;20.14;98080.75;10515784;28;20062;-76
2023/07/08 16:31:39;;;;;;;2.70;1.50;;;;;;;30.30;20.46;98070.63;10515315;28;20048;-76
2023/07/08 16:37:01;;;;;;;4.85;1.48;;;;;;;30.35;20.14;98069.19;10515206;28;20040;-76
2023/07/08 16:42:22;;;;;;;3.92;1.90;;;;;;;30.09;20.27;98077.97;10514657;28;20119;-76
2023/07/08 16:47:44;;;;;;;6.50;1.70;;;;;;;29.86;20.29;98078.03;10528596;28;20475;-76
2023/07/08 16:53:08;;;;;;;;;;;;;;;29.85;20.71;98070.84;10527568;28;20052;-76
2023/07/08 16:58:29;;;;;;;4.07;1.42;;;;;;;29.80;20.32;98072.28;10528062;28;19966;-74
2023/07/08 17:03:51;;;;;;;6.30;1.70;;;;;;;29.71;20.69;98073.78;10514107;28;20127;-76
2023/07/08 17:09:12;;;;;;;3.88;1.85;;;;;;;29.60;20.99;98064.47;10513866;28;20048;-76
2023/07/08 17:14:34;;;;;;;4.05;1.90;;;;;;;29.51;21.03;98068.78;10513716;28;20040;-73
2023/07/08 17:19:56;;;;;;;;;;;;;;;29.42;21.24;98072.38;10499758;28;20048;-77
2023/07/08 17:25:18;;;;;;;8.00;1.60;;;;;;;29.27;21.47;98075.31;10542086;28;19990;-74
2023/07/08 17:30:41;;;;;;;3.92;1.40;;;;;;;29.15;21.42;98063.84;10513297;28;20040;-74
2023/07/08 17:36:09;;;;;;;3.00;1.60;;;;;;;29.04;21.68;98056.63;10527115;28;20063;-76
2023/07/08 17:41:29;;;;;;;2.22;1.40;;;;;;;28.94;21.55;98057.34;10512554;28;20047;-75
2023/07/08 17:46:50;;;;;;;3.10;1.92;;;;;;;28.82;21.81;98074.56;10526035;28;20044;-75
2023/07/08 17:52:12;;;;;;;4.20;3.20;;;;;;;28.70;21.97;98071.72;10512241;28;20047;-75
2023/07/08 17:57:33;;;;;;;6.47;3.17;;;;;;;28.56;22.12;98069.53;10525724;28;20089;-75
2023/07/08 18:02:55;;;;;;;2.87;1.57;;;;;;;28.45;22.39;98076.69;10511658;28;20647;-75
2023/07/08 18:08:16;;;;;;;3.30;1.67;;;;;;;28.31;22.49;98073.81;10526113;28;20113;-75
2023/07/08 18:13:37;;;;;;;4.80;1.83;;;;;;;28.19;22.55;98078.06;10525108;28;20455;-75
2023/07/08 18:18:58;;;;;;;4.30;1.80;;;;;;;28.04;22.83;98076.56;10508712;28;20047;-75
2023/07/08 18:24:21;;;;;;;2.60;1.50;;;;;;;27.87;22.98;98072.19;10510782;28;20115;-75
2023/07/08 18:29:44;;;;;;;4.50;1.60;;;;;;;27.73;23.16;98089.34;10511516;28;20394;-75
2023/07/08 18:35:25;;;;;;;3.55;1.70;;;;;;;27.51;23.27;98082.03;10539571;28;20089;-75
2023/07/08 18:40:47;;;;;;;3.45;1.70;;;;;;;27.34;23.50;98080.50;10510641;28;20089;-75
2023/07/08 18:46:09;;;;;;;2.58;1.58;;;;;;;27.18;23.56;98080.38;10524336;28;20070;-73
2023/07/08 18:51:42;;;;;;;4.80;1.98;;;;;;;26.99;24.36;98085.94;10510237;28;20482;-72
2023/07/08 18:57:03;;;;;;;;;;;;;;;26.82;24.36;98093.69;10511082;28;20036;-75
2023/07/08 19:02:35;;;;;;;2.58;1.70;;;;;;;26.61;24.57;98085.63;10523838;28;20378;-73
2023/07/08 19:07:55;;;;;;;3.20;1.77;;;;;;;26.40;24.62;98078.97;10510508;28;20047;-76
2023/07/08 19:13:18;;;;;;;3.67;1.60;;;;;;;26.20;25.57;98090.91;10510116;28;20055;-74
2023/07/08 19:18:39;;;;;;;3.90;1.90;;;;;;;26.02;25.81;98096.41;10517918;28;20036;-75
2023/07/08 19:24:00;;;;;;;3.53;2.17;;;;;;;25.86;26.28;98097.63;10531992;28;20047;-77
2023/07/08 19:29:21;;;;;;;3.72;2.38;;;;;;;25.65;26.53;98107.34;10531705;28;20036;-76
2023/07/08 19:34:43;;;;;;;3.83;1.90;;;;;;;25.48;27.03;98109.28;10518001;28;20489;-77
2023/07/08 19:40:04;;;;;;;3.27;2.00;;;;;;;25.28;26.86;98115.38;10517634;28;20410;-77
2023/07/08 19:45:27;;;;;;;3.38;1.90;;;;;;;25.14;27.74;98118.03;10517159;28;20036;-76
2023/07/08 19:50:49;;;;;;;4.50;1.85;;;;;;;25.02;27.91;98132.13;10531096;28;20044;-76
2023/07/08 19:56:16;;;;;;;3.85;1.80;;;;;;;24.90;27.78;98138.34;10502802;28;20047;-77
2023/07/08 20:01:36;;;;;;;4.28;2.53;;;;;;;24.71;28.36;98131.56;10516383;28;20473;-77
2023/07/08 20:06:58;;;;;;;3.42;2.10;;;;;;;24.57;28.46;98134.16;10530463;28;20480;-77
2023/07/08 20:12:18;;;;;;;5.45;1.90;;;;;;;24.40;29.24;98140.97;10545119;28;20044;-74
2023/07/08 20:17:39;;;;;;;6.55;2.28;;;;;;;24.29;29.05;98142.88;10530035;28;20067;-75
2023/07/08 20:23:01;;;;;;;2.97;2.03;;;;;;;24.20;29.64;98136.28;10529625;28;20036;-77
2023/07/08 20:28:29;;;;;;;4.03;2.03;;;;;;;24.10;29.70;98144.63;10529372;28;20040;-76
2023/07/08 20:34:10;;;;;;;5.40;2.78;;;;;;;24.04;30.24;98150.22;10520780;28;20052;-76
2023/07/08 20:39:31;;;;;;;4.00;2.15;;;;;;;23.97;30.48;98154.34;10529515;28;20044;-76
2023/07/08 20:44:52;;;;;;;4.63;2.28;;;;;;;23.95;30.41;98151.47;10528826;28;20546;-76
2023/07/08 20:50:16;;;;;;;3.92;2.13;;;;;;;23.91;30.78;98157.06;10514577;28;20482;-77
2023/07/08 20:55:37;;;;;;;5.15;2.38;;;;;;;23.86;30.71;98156.25;10514453;28;20051;-77
2023/07/08 21:00:58;;;;;;;4.15;2.22;;;;;;;23.81;30.87;98154.00;10514413;28;20051;-77
2023/07/08 21:06:22;;;;;;;3.28;2.13;;;;;;;23.75;30.91;98162.44;10542954;28;20430;-76
2023/07/08 21:11:42;;;;;;;2.88;1.75;;;;;;;23.74;31.05;98163.81;10513840;28;20044;-77
2023/07/08 21:17:04;;;;;;;4.15;2.05;;;;;;;23.79;31.04;98165.34;10513580;28;20437;-76
2023/07/08 21:22:31;;;;;;;4.00;2.20;;;;;;;23.83;31.05;98174.00;10542430;28;20075;-75
2023/07/08 21:27:52;;;;;;;4.68;1.80;;;;;;;23.70;31.02;98173.00;10527192;28;20115;-76
2023/07/08 21:33:13;;;;;;;3.55;1.75;;;;;;;23.55;31.33;98174.78;10513025;28;20064;-76
2023/07/08 21:38:34;;;;;;;3.10;1.90;;;;;;;23.46;31.47;98164.59;10541271;28;20062;-76
2023/07/08 21:43:55;;;;;;;3.30;1.90;;;;;;;23.39;31.46;98168.69;10512419;28;20040;-75
2023/07/08 21:49:16;;;;;;;3.15;1.88;;;;;;;23.26;31.95;98166.94;10512440;28;20118;-76
2023/07/08 21:54:37;;;;;;;4.30;2.38;;;;;;;23.17;32.07;98171.03;10525763;28;20047;-75
2023/07/08 21:59:58;;;;;;;4.70;1.90;;;;;;;23.07;32.44;98177.19;10512284;28;20040;-76
2023/07/08 22:05:20;;;;;;;3.33;1.75;;;;;;;22.95;32.63;98179.72;10511438;28;20128;-76
2023/07/08 22:10:43;;;;;;;2.90;1.70;;;;;;;22.88;33.00;98180.97;10511786;28;20043;-74
2023/07/08 22:16:06;;;;;;;3.78;2.20;;;;;;;22.79;33.10;98182.84;10511790;28;20047;-75
2023/07/08 22:21:38;;;;;;;2.83;2.05;;;;;;;22.72;33.37;98184.06;10525348;28;20048;-75
2023/07/08 22:27:00;;;;;;;5.10;1.80;;;;;;;22.73;33.29;98177.72;10525164;28;20074;-74
2023/07/08 22:32:21;;;;;;;3.63;1.95;;;;;;;22.69;33.85;98183.31;10524838;28;20043;-74
2023/07/08 22:37:42;;;;;;;3.90;1.83;;;;;;;22.67;33.85;98185.34;10524777;28;20036;-74
2023/07/08 22:43:03;;;;;;;2.45;1.70;;;;;;;22.65;33.78;98183.19;10510439;28;20040;-75
2023/07/08 22:48:25;;;;;;;2.92;1.80;;;;;;;22.58;33.88;98190.09;10524054;28;20036;-74
2023/07/08 22:53:46;;;;;;;3.73;2.07;;;;;;;22.54;34.18;98187.16;10524611;28;20044;-75
2023/07/08 22:59:07;;;;;;;3.03;1.88;;;;;;;22.50;34.42;98189.88;10510256;28;20302;-74
2023/07/08 23:04:27;;;;;;;4.38;2.00;;;;;;;22.45;34.39;98191.88;10539415;22;20052;-75
2023/07/08 23:09:48;;;;;;;3.55;1.70;;;;;;;22.43;34.51;98191.84;10482518;28;20043;-76
2023/07/08 23:15:09;;;;;;;2.75;1.70;;;;;;;22.42;34.50;98201.75;10509869;28;20044;-77
2023/07/08 23:20:30;;;;;;;3.03;1.88;;;;;;;22.46;34.29;98193.34;10524075;28;20114;-76
2023/07/08 23:25:51;;;;;;;5.20;2.20;;;;;;;22.42;34.73;98195.34;10523658;28;20068;-77
2023/07/08 23:31:12;;;;;;;3.95;1.90;;;;;;;22.37;34.62;98194.50;10523758;28;20123;-77
2023/07/08 23:36:46;;;;;;;3.58;2.00;;;;;;;22.32;34.90;98192.22;10509386;28;20116;-76
2023/07/08 23:42:12;;;;;;;2.47;1.90;;;;;;;22.24;35.40;98189.88;10510269;28;20037;-77
2023/07/08 23:47:33;;;;;;;2.75;1.92;;;;;;;22.22;35.28;98190.53;10509696;28;20115;-77
2023/07/08 23:52:53;;;;;;;3.40;1.98;;;;;;;22.17;35.27;98191.81;10522982;28;20166;-74
2023/07/08 23:58:21;;;;;;;4.15;2.25;;;;;;;22.11;35.49;98188.06;10522995;28;20111;-75
